createdAt,value
2017-07-31T00:00:56.952Z,18.9
2017-07-31T00:01:58.643Z,18.9
2017-07-31T00:03:00.333Z,18.9
2017-07-31T00:04:02.034Z,18.8
2017-07-31T00:05:03.739Z,18.9
2017-07-31T00:06:05.430Z,18.8
2017-07-31T00:07:07.118Z,18.9
2017-07-31T00:08:08.810Z,19.0
2017-07-31T00:09:10.489Z,18.9
2017-07-31T00:10:12.171Z,19.0
2017-07-31T00:11:13.845Z,19.0
2017-07-31T00:12:15.545Z,19.0
2017-07-31T00:13:17.230Z,19.0
2017-07-31T00:14:18.945Z,18.9
2017-07-31T00:15:20.645Z,19.0
2017-07-31T00:16:22.373Z,18.9
2017-07-31T00:17:24.067Z,18.9
2017-07-31T00:18:25.784Z,19.0
2017-07-31T00:19:27.518Z,18.9
2017-07-31T00:20:29.236Z,19.0
2017-07-31T00:21:30.944Z,19.0
2017-07-31T00:22:32.644Z,18.9
2017-07-31T00:23:34.342Z,18.9
2017-07-31T00:24:36.037Z,18.9
2017-07-31T00:25:37.733Z,18.9
2017-07-31T00:26:39.432Z,18.9
2017-07-31T00:27:41.138Z,18.9
2017-07-31T00:28:42.829Z,18.9
2017-07-31T00:29:44.515Z,18.9
2017-07-31T00:30:46.199Z,18.9
2017-07-31T00:31:47.891Z,19.0
2017-07-31T00:32:49.591Z,19.0
2017-07-31T00:33:51.286Z,19.1
2017-07-31T00:34:52.980Z,19.1
2017-07-31T00:35:54.658Z,19.1
2017-07-31T00:36:56.362Z,19.1
2017-07-31T00:37:58.041Z,19.0
2017-07-31T00:38:59.739Z,19.1
2017-07-31T00:40:01.455Z,19.1
2017-07-31T00:41:03.137Z,19.0
2017-07-31T00:42:04.822Z,19.1
2017-07-31T00:43:06.523Z,19.0
2017-07-31T00:44:08.217Z,19.0
2017-07-31T00:45:09.921Z,19.0
2017-07-31T00:46:11.608Z,19.1
2017-07-31T00:47:13.313Z,19.1
2017-07-31T00:48:14.992Z,19.1
2017-07-31T00:49:16.691Z,19.0
2017-07-31T00:50:18.382Z,19.1
2017-07-31T00:51:20.077Z,19.0
2017-07-31T00:52:21.756Z,19.1
2017-07-31T00:53:23.465Z,19.1
2017-07-31T00:54:25.150Z,19.0
2017-07-31T00:55:26.865Z,19.0
2017-07-31T00:56:28.551Z,19.0
2017-07-31T00:57:30.268Z,19.1
2017-07-31T00:58:31.957Z,19.0
2017-07-31T00:59:33.724Z,19.1
2017-07-31T01:00:35.404Z,19.0
2017-07-31T01:01:37.085Z,19.0
2017-07-31T01:02:38.786Z,19.0
2017-07-31T01:03:40.459Z,19.0
2017-07-31T01:04:42.155Z,19.0
2017-07-31T01:05:43.835Z,18.9
2017-07-31T01:06:45.535Z,19.0
2017-07-31T01:07:47.224Z,19.0
2017-07-31T01:08:48.917Z,18.9
2017-07-31T01:09:50.605Z,18.9
2017-07-31T01:10:52.299Z,18.9
2017-07-31T01:11:53.997Z,18.9
2017-07-31T01:12:55.697Z,19.0
2017-07-31T01:13:57.374Z,19.0
2017-07-31T01:14:59.071Z,19.0
2017-07-31T01:16:00.758Z,19.0
2017-07-31T01:17:02.485Z,19.0
2017-07-31T01:18:04.206Z,19.0
2017-07-31T01:19:05.895Z,19.0
2017-07-31T01:20:07.688Z,19.0
2017-07-31T01:21:09.374Z,19.1
2017-07-31T01:22:11.050Z,19.1
2017-07-31T01:23:13.086Z,19.1
2017-07-31T01:24:14.772Z,19.1
2017-07-31T01:25:16.476Z,19.0
2017-07-31T01:26:18.176Z,19.1
2017-07-31T01:27:19.868Z,19.0
2017-07-31T01:28:21.571Z,19.1
2017-07-31T01:29:23.261Z,19.1
2017-07-31T01:30:24.949Z,19.1
2017-07-31T01:31:26.650Z,19.0
2017-07-31T01:32:28.346Z,19.1
2017-07-31T01:33:30.039Z,19.0
2017-07-31T01:34:31.733Z,19.0
2017-07-31T01:35:33.431Z,19.0
2017-07-31T01:36:35.128Z,19.1
2017-07-31T01:37:36.829Z,19.0
2017-07-31T01:38:38.512Z,19.0
2017-07-31T01:39:40.200Z,19.1
2017-07-31T01:40:41.882Z,19.0
2017-07-31T01:41:43.572Z,19.0
2017-07-31T01:42:45.269Z,18.9
2017-07-31T01:43:46.967Z,18.8
2017-07-31T01:44:48.667Z,18.6
2017-07-31T01:45:50.353Z,18.7
2017-07-31T01:46:52.042Z,18.7
2017-07-31T01:47:53.735Z,18.7
2017-07-31T01:48:55.425Z,18.7
2017-07-31T01:49:57.119Z,18.7
2017-07-31T01:50:58.807Z,18.6
2017-07-31T01:52:00.515Z,18.7
2017-07-31T01:53:02.208Z,18.8
2017-07-31T01:54:03.909Z,18.8
2017-07-31T01:55:05.602Z,18.8
2017-07-31T01:56:07.290Z,18.8
2017-07-31T01:57:08.992Z,18.8
2017-07-31T01:58:10.687Z,18.8
2017-07-31T01:59:12.401Z,18.8
2017-07-31T02:00:14.112Z,18.7
2017-07-31T02:01:15.799Z,18.6
2017-07-31T02:02:17.557Z,18.6
2017-07-31T02:03:19.238Z,18.7
2017-07-31T02:04:20.918Z,18.7
2017-07-31T02:05:22.631Z,18.7
2017-07-31T02:06:24.330Z,18.7
2017-07-31T02:07:26.015Z,18.8
2017-07-31T02:08:27.720Z,18.8
2017-07-31T02:09:29.421Z,18.8
2017-07-31T02:10:31.108Z,18.8
2017-07-31T02:11:32.806Z,18.7
2017-07-31T02:12:34.499Z,18.6
2017-07-31T02:13:36.187Z,18.7
2017-07-31T02:14:37.879Z,18.8
2017-07-31T02:15:39.595Z,18.6
2017-07-31T02:16:41.290Z,18.6
2017-07-31T02:17:42.978Z,18.7
2017-07-31T02:18:44.674Z,18.6
2017-07-31T02:19:46.373Z,18.6
2017-07-31T02:20:48.058Z,18.6
2017-07-31T02:21:49.759Z,18.6
2017-07-31T02:22:51.439Z,18.7
2017-07-31T02:23:53.113Z,18.7
2017-07-31T02:24:54.796Z,18.6
2017-07-31T02:25:56.486Z,18.6
2017-07-31T02:26:58.169Z,18.6
2017-07-31T02:27:59.864Z,18.6
2017-07-31T02:29:01.539Z,18.6
2017-07-31T02:30:03.229Z,18.7
2017-07-31T02:31:04.923Z,18.6
2017-07-31T02:32:06.633Z,18.6
2017-07-31T02:33:08.334Z,18.6
2017-07-31T02:34:10.025Z,18.7
2017-07-31T02:35:11.706Z,18.6
2017-07-31T02:36:13.406Z,18.7
2017-07-31T02:37:15.112Z,18.6
2017-07-31T02:38:16.796Z,18.8
2017-07-31T02:39:18.475Z,18.8
2017-07-31T02:40:20.155Z,18.8
2017-07-31T02:41:21.864Z,18.8
2017-07-31T02:42:23.556Z,18.8
2017-07-31T02:43:25.260Z,18.8
2017-07-31T02:44:26.950Z,18.8
2017-07-31T02:45:28.653Z,18.8
2017-07-31T02:46:30.349Z,18.8
2017-07-31T02:47:32.042Z,18.8
2017-07-31T02:48:33.735Z,18.9
2017-07-31T02:49:35.420Z,18.9
2017-07-31T02:50:37.115Z,18.8
2017-07-31T02:51:38.909Z,18.9
2017-07-31T02:52:40.596Z,18.9
2017-07-31T02:53:42.310Z,18.8
2017-07-31T02:54:44.001Z,18.9
2017-07-31T02:55:45.697Z,18.8
2017-07-31T02:56:47.397Z,18.8
2017-07-31T02:57:49.091Z,18.9
2017-07-31T02:58:50.774Z,18.9
2017-07-31T02:59:52.472Z,19.0
2017-07-31T03:00:54.163Z,18.9
2017-07-31T03:01:55.867Z,18.9
2017-07-31T03:02:57.562Z,18.9
2017-07-31T03:03:59.267Z,19.0
2017-07-31T03:05:00.969Z,18.9
2017-07-31T03:06:02.690Z,18.9
2017-07-31T03:07:04.380Z,18.9
2017-07-31T03:08:06.083Z,18.8
2017-07-31T03:09:07.776Z,18.8
2017-07-31T03:10:09.479Z,18.8
2017-07-31T03:11:11.167Z,18.9
2017-07-31T03:12:12.861Z,18.8
2017-07-31T03:13:14.610Z,18.9
2017-07-31T03:14:16.326Z,18.9
2017-07-31T03:15:18.054Z,18.8
2017-07-31T03:16:19.834Z,18.9
2017-07-31T03:17:21.538Z,18.9
2017-07-31T03:18:23.214Z,18.8
2017-07-31T03:19:24.934Z,18.8
2017-07-31T03:20:26.619Z,18.8
2017-07-31T03:21:28.307Z,18.8
2017-07-31T03:22:29.996Z,18.8
2017-07-31T03:23:31.756Z,18.8
2017-07-31T03:24:33.449Z,18.8
2017-07-31T03:25:35.138Z,18.8
2017-07-31T03:26:36.824Z,18.7
2017-07-31T03:27:38.531Z,18.8
2017-07-31T03:28:40.254Z,18.8
2017-07-31T03:29:41.952Z,18.8
2017-07-31T03:30:43.680Z,18.8
2017-07-31T03:31:45.387Z,18.7
2017-07-31T03:32:47.074Z,18.7
2017-07-31T03:33:48.856Z,18.6
2017-07-31T03:34:50.876Z,18.7
2017-07-31T03:35:52.580Z,18.6
2017-07-31T03:36:54.341Z,18.6
2017-07-31T03:37:56.040Z,18.8
2017-07-31T03:38:57.725Z,18.8
2017-07-31T03:39:59.500Z,18.8
2017-07-31T03:41:01.194Z,18.8
2017-07-31T03:42:02.895Z,18.8
2017-07-31T03:43:04.587Z,18.8
2017-07-31T03:44:06.285Z,18.8
2017-07-31T03:45:07.974Z,18.7
2017-07-31T03:46:09.666Z,18.8
2017-07-31T03:47:11.419Z,18.8
2017-07-31T03:48:13.272Z,18.8
2017-07-31T03:49:14.966Z,18.7
2017-07-31T03:50:16.658Z,18.7
2017-07-31T03:51:18.384Z,18.6
2017-07-31T03:52:20.072Z,18.6
2017-07-31T03:53:21.779Z,18.6
2017-07-31T03:54:23.472Z,18.6
2017-07-31T03:55:25.178Z,18.7
2017-07-31T03:56:26.884Z,18.6
2017-07-31T03:57:28.601Z,18.7
2017-07-31T03:58:30.293Z,18.6
2017-07-31T03:59:32.057Z,18.5
2017-07-31T04:00:33.754Z,18.6
2017-07-31T04:01:35.449Z,18.5
2017-07-31T04:02:37.135Z,18.5
2017-07-31T04:03:38.846Z,18.5
2017-07-31T04:04:40.548Z,18.6
2017-07-31T04:05:42.246Z,18.5
2017-07-31T04:06:43.930Z,18.6
2017-07-31T04:07:45.645Z,18.6
2017-07-31T04:08:47.347Z,18.6
2017-07-31T04:09:49.079Z,18.7
2017-07-31T04:10:50.759Z,18.7
2017-07-31T04:11:52.463Z,18.5
2017-07-31T04:12:54.145Z,18.6
2017-07-31T04:13:55.857Z,18.6
2017-07-31T04:14:57.554Z,18.6
2017-07-31T04:15:59.265Z,18.5
2017-07-31T04:17:00.973Z,18.6
2017-07-31T04:18:02.680Z,18.6
2017-07-31T04:19:04.385Z,18.6
2017-07-31T04:20:06.088Z,18.6
2017-07-31T04:21:07.780Z,18.6
2017-07-31T04:22:09.490Z,18.6
2017-07-31T04:23:11.186Z,18.6
2017-07-31T04:24:12.908Z,18.6
2017-07-31T04:25:14.592Z,18.6
2017-07-31T04:26:16.287Z,18.6
2017-07-31T04:27:17.971Z,18.7
2017-07-31T04:28:19.674Z,18.7
2017-07-31T04:29:21.389Z,18.7
2017-07-31T04:30:23.110Z,18.6
2017-07-31T04:31:24.798Z,18.5
2017-07-31T04:32:26.507Z,18.6
2017-07-31T04:33:28.199Z,18.6
2017-07-31T04:34:29.887Z,18.6
2017-07-31T04:35:31.581Z,18.6
2017-07-31T04:36:33.287Z,18.6
2017-07-31T04:37:34.924Z,18.7
2017-07-31T04:38:36.586Z,18.6
2017-07-31T04:39:38.243Z,18.6
2017-07-31T04:40:39.902Z,18.5
2017-07-31T04:41:41.541Z,18.6
2017-07-31T04:42:43.192Z,18.7
2017-07-31T04:43:44.852Z,18.5
2017-07-31T04:44:46.528Z,18.7
2017-07-31T04:45:48.216Z,18.7
2017-07-31T04:46:49.900Z,18.6
2017-07-31T04:47:51.555Z,18.5
2017-07-31T04:48:53.200Z,18.7
2017-07-31T04:49:54.873Z,18.5
2017-07-31T04:50:56.529Z,18.5
2017-07-31T04:51:58.196Z,18.6
2017-07-31T04:52:59.850Z,18.5
2017-07-31T04:54:01.521Z,18.6
2017-07-31T04:55:03.166Z,18.6
2017-07-31T04:56:04.822Z,18.7
2017-07-31T04:57:06.472Z,18.6
2017-07-31T04:58:08.182Z,18.7
2017-07-31T04:59:09.841Z,18.7
2017-07-31T05:00:11.511Z,18.6
2017-07-31T05:01:13.170Z,18.7
2017-07-31T05:02:14.839Z,18.6
2017-07-31T05:03:16.497Z,18.6
2017-07-31T05:04:18.158Z,18.6
2017-07-31T05:05:19.812Z,18.7
2017-07-31T05:06:21.471Z,18.6
2017-07-31T05:07:23.126Z,18.7
2017-07-31T05:08:24.802Z,18.7
2017-07-31T05:09:26.460Z,18.6
2017-07-31T05:10:28.144Z,18.7
2017-07-31T05:11:29.818Z,18.6
2017-07-31T05:12:31.477Z,18.5
2017-07-31T05:13:33.136Z,18.5
2017-07-31T05:14:34.856Z,18.6
2017-07-31T05:15:36.522Z,18.5
2017-07-31T05:16:38.179Z,18.5
2017-07-31T05:17:39.847Z,18.6
2017-07-31T05:18:41.505Z,18.5
2017-07-31T05:19:43.170Z,18.5
2017-07-31T05:20:44.830Z,18.5
2017-07-31T05:21:46.496Z,18.5
2017-07-31T05:22:48.156Z,18.5
2017-07-31T05:23:49.799Z,18.6
2017-07-31T05:24:51.466Z,18.6
2017-07-31T05:25:53.116Z,18.6
2017-07-31T05:26:54.764Z,18.5
2017-07-31T05:27:56.431Z,18.6
2017-07-31T05:28:58.106Z,18.5
2017-07-31T05:29:59.781Z,18.6
2017-07-31T05:31:01.484Z,18.5
2017-07-31T05:32:03.164Z,18.5
2017-07-31T05:33:04.814Z,18.5
2017-07-31T05:34:06.502Z,18.5
2017-07-31T05:35:08.179Z,18.5
2017-07-31T05:36:09.890Z,18.4
2017-07-31T05:37:11.605Z,18.5
2017-07-31T05:38:13.331Z,18.5
2017-07-31T05:39:15.014Z,18.5
2017-07-31T05:40:16.739Z,18.4
2017-07-31T05:41:18.460Z,18.5
2017-07-31T05:42:20.159Z,18.5
2017-07-31T05:43:21.866Z,18.5
2017-07-31T05:44:23.568Z,18.5
2017-07-31T05:45:25.276Z,18.4
2017-07-31T05:46:26.980Z,18.5
2017-07-31T05:47:28.688Z,18.5
2017-07-31T05:48:30.385Z,18.4
2017-07-31T05:49:32.084Z,18.5
2017-07-31T05:50:33.799Z,18.5
2017-07-31T05:51:35.508Z,18.5
2017-07-31T05:52:37.219Z,18.5
2017-07-31T05:53:38.913Z,18.5
2017-07-31T05:54:40.628Z,18.5
2017-07-31T05:55:42.328Z,18.5
2017-07-31T05:56:44.031Z,18.5
2017-07-31T05:57:45.721Z,18.5
2017-07-31T05:58:47.442Z,18.5
2017-07-31T05:59:49.147Z,18.5
2017-07-31T06:00:50.835Z,18.5
2017-07-31T06:01:52.542Z,18.5
2017-07-31T06:02:54.248Z,18.6
2017-07-31T06:03:55.952Z,18.5
2017-07-31T06:04:57.704Z,18.5
2017-07-31T06:05:59.410Z,18.5
2017-07-31T06:07:01.141Z,18.5
2017-07-31T06:08:02.837Z,18.5
2017-07-31T06:09:04.580Z,18.5
2017-07-31T06:10:06.282Z,18.5
2017-07-31T06:11:07.986Z,18.5
2017-07-31T06:12:09.693Z,18.6
2017-07-31T06:13:11.382Z,18.6
2017-07-31T06:14:13.091Z,18.6
2017-07-31T06:15:14.797Z,18.7
2017-07-31T06:16:16.480Z,18.6
2017-07-31T06:17:18.194Z,18.6
2017-07-31T06:18:19.888Z,18.7
2017-07-31T06:19:21.589Z,18.7
2017-07-31T06:20:23.282Z,18.8
2017-07-31T06:21:24.957Z,18.8
2017-07-31T06:22:26.646Z,18.9
2017-07-31T06:23:28.361Z,18.9
2017-07-31T06:24:30.062Z,18.8
2017-07-31T06:25:31.754Z,18.7
2017-07-31T06:26:33.456Z,18.8
2017-07-31T06:27:35.144Z,18.8
2017-07-31T06:28:36.845Z,18.8
2017-07-31T06:29:38.554Z,18.9
2017-07-31T06:30:40.238Z,18.9
2017-07-31T06:31:41.942Z,18.7
2017-07-31T06:32:43.640Z,18.8
2017-07-31T06:33:45.350Z,18.7
2017-07-31T06:34:47.030Z,18.7
2017-07-31T06:35:48.727Z,18.6
2017-07-31T06:36:50.479Z,18.7
2017-07-31T06:37:52.193Z,18.7
2017-07-31T06:38:53.877Z,18.7
2017-07-31T06:39:55.576Z,18.5
2017-07-31T06:40:57.301Z,18.7
2017-07-31T06:41:59.019Z,18.7
2017-07-31T06:43:00.734Z,18.6
2017-07-31T06:44:02.423Z,18.7
2017-07-31T06:45:04.147Z,18.8
2017-07-31T06:46:05.845Z,18.8
2017-07-31T06:47:07.565Z,18.7
2017-07-31T06:48:09.248Z,18.7
2017-07-31T06:49:10.944Z,18.6
2017-07-31T06:50:12.620Z,18.6
2017-07-31T06:51:14.346Z,18.7
2017-07-31T06:52:16.033Z,18.7
2017-07-31T06:53:17.730Z,18.6
2017-07-31T06:54:19.425Z,18.6
2017-07-31T06:55:21.112Z,18.6
2017-07-31T06:56:22.813Z,18.6
2017-07-31T06:57:24.512Z,18.6
2017-07-31T06:58:26.197Z,18.6
2017-07-31T06:59:27.907Z,18.6
2017-07-31T07:00:29.585Z,18.6
2017-07-31T07:01:31.272Z,18.6
2017-07-31T07:02:32.964Z,18.7
2017-07-31T07:03:34.662Z,18.7
2017-07-31T07:04:36.351Z,18.6
2017-07-31T07:05:38.039Z,18.7
2017-07-31T07:06:39.725Z,18.7
2017-07-31T07:07:41.415Z,18.6
2017-07-31T07:08:43.105Z,18.7
2017-07-31T07:09:44.798Z,18.7
2017-07-31T07:10:46.474Z,18.6
2017-07-31T07:11:48.178Z,18.7
2017-07-31T07:12:49.869Z,18.7
2017-07-31T07:13:51.557Z,18.6
2017-07-31T07:14:53.254Z,18.7
2017-07-31T07:15:54.945Z,18.7
2017-07-31T07:16:56.661Z,18.8
2017-07-31T07:17:58.368Z,18.7
2017-07-31T07:19:00.053Z,18.8
2017-07-31T07:20:01.734Z,18.8
2017-07-31T07:21:03.429Z,18.7
2017-07-31T07:22:05.122Z,18.6
2017-07-31T07:23:06.827Z,18.8
2017-07-31T07:24:08.527Z,18.8
2017-07-31T07:25:10.246Z,18.8
2017-07-31T07:26:11.932Z,18.8
2017-07-31T07:27:13.636Z,18.8
2017-07-31T07:28:15.330Z,18.8
2017-07-31T07:29:17.007Z,18.8
2017-07-31T07:30:18.683Z,18.7
2017-07-31T07:31:20.397Z,18.7
2017-07-31T07:32:22.088Z,18.6
2017-07-31T07:33:23.772Z,18.6
2017-07-31T07:34:25.470Z,18.7
2017-07-31T07:35:27.140Z,18.6
2017-07-31T07:36:28.828Z,18.8
2017-07-31T07:37:30.517Z,18.7
2017-07-31T07:38:32.200Z,18.8
2017-07-31T07:39:33.917Z,18.6
2017-07-31T07:40:35.603Z,18.7
2017-07-31T07:41:37.303Z,18.6
2017-07-31T07:42:38.988Z,18.5
2017-07-31T07:43:40.698Z,18.6
2017-07-31T07:44:42.392Z,18.6
2017-07-31T07:45:44.109Z,18.7
2017-07-31T07:46:45.791Z,18.7
2017-07-31T07:47:47.492Z,18.7
2017-07-31T07:48:49.178Z,18.8
2017-07-31T07:49:50.883Z,18.7
2017-07-31T07:50:52.573Z,18.8
2017-07-31T07:51:54.256Z,18.8
2017-07-31T07:52:55.961Z,18.6
2017-07-31T07:53:57.652Z,18.8
2017-07-31T07:54:59.333Z,18.7
2017-07-31T07:56:01.029Z,19.0
2017-07-31T07:57:02.737Z,19.2
2017-07-31T07:58:04.434Z,19.2
2017-07-31T07:59:06.126Z,19.2
2017-07-31T08:00:07.821Z,19.4
2017-07-31T08:01:09.512Z,19.4
2017-07-31T08:02:11.198Z,19.4
2017-07-31T08:03:12.903Z,19.3
2017-07-31T08:04:14.586Z,19.3
2017-07-31T08:05:16.277Z,19.4
2017-07-31T08:06:17.978Z,19.5
2017-07-31T08:07:19.694Z,19.4
2017-07-31T08:08:21.402Z,19.5
2017-07-31T08:09:23.118Z,19.5
2017-07-31T08:10:24.820Z,19.5
2017-07-31T08:11:26.522Z,19.4
2017-07-31T08:12:28.216Z,19.3
2017-07-31T08:13:29.909Z,19.5
2017-07-31T08:14:31.617Z,19.5
2017-07-31T08:15:33.297Z,19.5
2017-07-31T08:16:34.988Z,19.7
2017-07-31T08:17:36.713Z,19.8
2017-07-31T08:18:38.412Z,19.9
2017-07-31T08:19:40.094Z,19.6
2017-07-31T08:20:41.790Z,19.9
2017-07-31T08:21:43.491Z,19.9
2017-07-31T08:22:45.180Z,20.0
2017-07-31T08:23:46.900Z,19.9
2017-07-31T08:24:48.597Z,20.0
2017-07-31T08:25:50.290Z,19.9
2017-07-31T08:26:51.987Z,20.1
2017-07-31T08:27:53.702Z,19.8
2017-07-31T08:28:55.432Z,19.8
2017-07-31T08:29:57.131Z,19.9
2017-07-31T08:30:58.833Z,19.9
2017-07-31T08:32:00.543Z,20.0
2017-07-31T08:33:02.239Z,20.0
2017-07-31T08:34:03.981Z,19.8
2017-07-31T08:35:05.666Z,19.8
2017-07-31T08:36:07.364Z,19.6
2017-07-31T08:37:09.051Z,19.6
2017-07-31T08:38:10.747Z,19.7
2017-07-31T08:39:12.441Z,19.8
2017-07-31T08:40:14.124Z,19.8
2017-07-31T08:41:15.829Z,19.8
2017-07-31T08:42:17.532Z,19.9
2017-07-31T08:43:19.217Z,19.9
2017-07-31T08:44:20.916Z,20.0
2017-07-31T08:45:22.614Z,19.9
2017-07-31T08:46:24.315Z,19.9
2017-07-31T08:47:26.008Z,19.9
2017-07-31T08:48:27.709Z,20.1
2017-07-31T08:49:29.415Z,20.1
2017-07-31T08:50:31.110Z,20.3
2017-07-31T08:51:32.811Z,20.3
2017-07-31T08:52:34.504Z,20.4
2017-07-31T08:53:36.207Z,20.6
2017-07-31T08:54:37.900Z,20.3
2017-07-31T08:55:39.597Z,20.4
2017-07-31T08:56:41.299Z,20.4
2017-07-31T08:57:42.991Z,20.4
2017-07-31T08:58:44.713Z,20.4
2017-07-31T08:59:46.436Z,20.5
2017-07-31T09:00:48.129Z,20.5
2017-07-31T09:01:49.858Z,20.4
2017-07-31T09:02:51.597Z,20.4
2017-07-31T09:03:53.312Z,20.4
2017-07-31T09:04:55.025Z,20.4
2017-07-31T09:05:56.753Z,20.4
2017-07-31T09:06:58.488Z,20.3
2017-07-31T09:08:00.242Z,20.4
2017-07-31T09:09:01.952Z,20.4
2017-07-31T09:10:03.683Z,20.4
2017-07-31T09:11:05.396Z,20.5
2017-07-31T09:12:07.124Z,20.5
2017-07-31T09:13:08.836Z,20.5
2017-07-31T09:14:10.540Z,20.4
2017-07-31T09:15:12.231Z,20.2
2017-07-31T09:16:13.952Z,20.3
2017-07-31T09:17:15.662Z,20.3
2017-07-31T09:18:17.405Z,20.3
2017-07-31T09:19:19.109Z,20.5
2017-07-31T09:20:20.890Z,20.4
2017-07-31T09:21:22.614Z,20.5
2017-07-31T09:22:24.618Z,20.4
2017-07-31T09:23:26.529Z,20.4
2017-07-31T09:24:28.554Z,20.4
2017-07-31T09:25:30.237Z,20.5
2017-07-31T09:26:31.969Z,20.5
2017-07-31T09:27:33.691Z,20.5
2017-07-31T09:28:35.410Z,20.6
2017-07-31T09:29:37.131Z,20.7
2017-07-31T09:30:38.924Z,20.7
2017-07-31T09:31:40.605Z,20.7
2017-07-31T09:32:42.326Z,20.4
2017-07-31T09:33:44.013Z,20.4
2017-07-31T09:34:45.717Z,20.5
2017-07-31T09:35:47.562Z,20.7
2017-07-31T09:36:49.339Z,20.7
2017-07-31T09:37:51.043Z,20.7
2017-07-31T09:38:52.737Z,20.7
2017-07-31T09:39:54.435Z,20.7
2017-07-31T09:40:56.139Z,20.7
2017-07-31T09:41:57.846Z,20.8
2017-07-31T09:42:59.551Z,20.9
2017-07-31T09:44:01.327Z,20.9
2017-07-31T09:45:03.039Z,21.0
2017-07-31T09:46:04.773Z,20.9
2017-07-31T09:47:06.489Z,20.8
2017-07-31T09:48:08.174Z,20.9
2017-07-31T09:49:09.903Z,20.8
2017-07-31T09:50:11.587Z,20.9
2017-07-31T09:51:13.321Z,21.0
2017-07-31T09:52:15.031Z,21.0
2017-07-31T09:53:16.765Z,20.9
2017-07-31T09:54:18.474Z,20.7
2017-07-31T09:55:20.191Z,20.8
2017-07-31T09:56:21.881Z,20.9
2017-07-31T09:57:23.580Z,20.7
2017-07-31T09:58:25.267Z,20.7
2017-07-31T09:59:26.973Z,20.7
2017-07-31T10:00:28.695Z,20.5
2017-07-31T10:01:30.397Z,20.6
2017-07-31T10:02:32.096Z,20.7
2017-07-31T10:03:33.795Z,20.9
2017-07-31T10:04:35.497Z,20.6
2017-07-31T10:05:37.203Z,20.7
2017-07-31T10:06:38.891Z,20.7
2017-07-31T10:07:40.589Z,20.7
2017-07-31T10:08:42.280Z,20.6
2017-07-31T10:09:44.001Z,20.6
2017-07-31T10:10:45.696Z,20.7
2017-07-31T10:11:47.405Z,20.6
2017-07-31T10:12:49.131Z,20.6
2017-07-31T10:13:50.830Z,20.5
2017-07-31T10:14:52.517Z,20.5
2017-07-31T10:15:54.215Z,20.4
2017-07-31T10:16:55.928Z,20.6
2017-07-31T10:17:57.641Z,20.6
2017-07-31T10:18:59.350Z,20.7
2017-07-31T10:20:01.060Z,20.7
2017-07-31T10:21:02.744Z,20.5
2017-07-31T10:22:04.438Z,20.4
2017-07-31T10:23:06.133Z,20.7
2017-07-31T10:24:07.824Z,20.7
2017-07-31T10:25:09.511Z,20.7
2017-07-31T10:26:11.239Z,20.9
2017-07-31T10:27:12.928Z,20.9
2017-07-31T10:28:14.643Z,20.9
2017-07-31T10:29:16.341Z,21.1
2017-07-31T10:30:18.039Z,21.1
2017-07-31T10:31:19.744Z,21.3
2017-07-31T10:32:21.473Z,21.3
2017-07-31T10:33:23.172Z,21.3
2017-07-31T10:34:24.904Z,21.2
2017-07-31T10:35:26.581Z,21.1
2017-07-31T10:36:28.269Z,21.1
2017-07-31T10:37:29.980Z,21.0
2017-07-31T10:38:31.746Z,21.0
2017-07-31T10:39:33.437Z,20.9
2017-07-31T10:40:35.130Z,21.0
2017-07-31T10:41:36.832Z,21.0
2017-07-31T10:42:38.547Z,21.2
2017-07-31T10:43:40.315Z,21.4
2017-07-31T10:44:42.030Z,21.4
2017-07-31T10:45:43.741Z,21.1
2017-07-31T10:46:45.461Z,21.0
2017-07-31T10:47:47.166Z,21.0
2017-07-31T10:48:48.881Z,21.1
2017-07-31T10:49:50.582Z,21.0
2017-07-31T10:50:52.320Z,20.9
2017-07-31T10:51:54.018Z,20.9
2017-07-31T10:52:55.749Z,20.9
2017-07-31T10:53:57.454Z,20.9
2017-07-31T10:54:59.171Z,20.9
2017-07-31T10:56:00.875Z,20.9
2017-07-31T10:57:02.605Z,21.0
2017-07-31T10:58:04.303Z,21.3
2017-07-31T10:59:06.003Z,21.3
2017-07-31T11:00:07.704Z,21.3
2017-07-31T11:01:09.402Z,21.1
2017-07-31T11:02:11.136Z,21.3
2017-07-31T11:03:13.083Z,21.4
2017-07-31T11:04:14.795Z,21.5
2017-07-31T11:05:16.527Z,21.4
2017-07-31T11:06:18.231Z,21.5
2017-07-31T11:07:19.945Z,21.6
2017-07-31T11:08:21.648Z,21.7
2017-07-31T11:09:23.369Z,21.8
2017-07-31T11:10:25.086Z,21.8
2017-07-31T11:11:26.794Z,21.9
2017-07-31T11:12:28.507Z,22.1
2017-07-31T11:13:30.220Z,22.0
2017-07-31T11:14:31.924Z,22.1
2017-07-31T11:15:33.643Z,22.3
2017-07-31T11:16:35.340Z,22.2
2017-07-31T11:17:37.032Z,22.0
2017-07-31T11:18:38.727Z,22.1
2017-07-31T11:19:40.442Z,22.2
2017-07-31T11:20:42.132Z,22.2
2017-07-31T11:21:43.841Z,22.3
2017-07-31T11:22:45.539Z,22.2
2017-07-31T11:23:47.243Z,22.2
2017-07-31T11:24:48.943Z,22.3
2017-07-31T11:25:50.664Z,22.4
2017-07-31T11:26:52.385Z,22.4
2017-07-31T11:27:54.099Z,22.3
2017-07-31T11:28:55.817Z,22.4
2017-07-31T11:29:57.506Z,22.4
2017-07-31T11:30:59.202Z,22.6
2017-07-31T11:32:00.916Z,22.5
2017-07-31T11:33:02.721Z,22.4
2017-07-31T11:34:04.416Z,22.2
2017-07-31T11:35:06.108Z,22.3
2017-07-31T11:36:07.819Z,22.2
2017-07-31T11:37:09.525Z,22.1
2017-07-31T11:38:11.240Z,22.3
2017-07-31T11:39:12.945Z,22.4
2017-07-31T11:40:14.656Z,22.6
2017-07-31T11:41:16.417Z,22.6
2017-07-31T11:42:18.113Z,22.7
2017-07-31T11:43:19.806Z,22.8
2017-07-31T11:44:21.508Z,22.7
2017-07-31T11:45:23.205Z,22.9
2017-07-31T11:46:24.925Z,23.0
2017-07-31T11:47:26.618Z,22.8
2017-07-31T11:48:28.317Z,22.9
2017-07-31T11:49:30.043Z,22.7
2017-07-31T11:50:31.759Z,22.9
2017-07-31T11:51:33.441Z,23.2
2017-07-31T11:52:35.162Z,23.1
2017-07-31T11:53:36.877Z,23.0
2017-07-31T11:54:38.575Z,23.0
2017-07-31T11:55:40.287Z,23.0
2017-07-31T11:56:41.997Z,23.1
2017-07-31T11:57:43.692Z,23.0
2017-07-31T11:58:45.392Z,23.3
2017-07-31T11:59:47.118Z,23.3
2017-07-31T12:00:48.819Z,23.2
2017-07-31T12:01:50.542Z,23.1
2017-07-31T12:02:52.241Z,23.1
2017-07-31T12:03:53.950Z,23.1
2017-07-31T12:04:55.705Z,23.1
2017-07-31T12:05:57.401Z,23.2
2017-07-31T12:06:59.092Z,23.2
2017-07-31T12:08:00.831Z,23.4
2017-07-31T12:09:02.578Z,23.3
2017-07-31T12:10:04.301Z,23.0
2017-07-31T12:11:06.002Z,23.1
2017-07-31T12:12:07.723Z,23.1
2017-07-31T12:13:09.420Z,23.0
2017-07-31T12:14:11.140Z,23.4
2017-07-31T12:15:12.841Z,23.4
2017-07-31T12:16:14.553Z,23.5
2017-07-31T12:17:16.266Z,23.5
2017-07-31T12:18:18.032Z,23.4
2017-07-31T12:19:19.766Z,23.4
2017-07-31T12:20:21.488Z,23.6
2017-07-31T12:21:23.189Z,23.9
2017-07-31T12:22:24.900Z,24.0
2017-07-31T12:23:26.602Z,24.1
2017-07-31T12:24:28.322Z,23.9
2017-07-31T12:25:30.049Z,23.8
2017-07-31T12:26:31.762Z,23.8
2017-07-31T12:27:33.477Z,23.6
2017-07-31T12:28:35.188Z,23.7
2017-07-31T12:29:36.931Z,23.9
2017-07-31T12:30:38.647Z,24.0
2017-07-31T12:31:40.353Z,23.9
2017-07-31T12:32:42.061Z,23.8
2017-07-31T12:33:43.782Z,23.9
2017-07-31T12:34:45.490Z,24.1
2017-07-31T12:35:47.215Z,24.1
2017-07-31T12:36:48.927Z,23.9
2017-07-31T12:37:50.643Z,23.7
2017-07-31T12:38:52.361Z,23.9
2017-07-31T12:39:54.074Z,24.4
2017-07-31T12:40:55.793Z,24.9
2017-07-31T12:41:57.505Z,24.5
2017-07-31T12:42:59.247Z,24.8
2017-07-31T12:44:00.968Z,24.2
2017-07-31T12:45:02.888Z,24.6
2017-07-31T12:46:04.610Z,25.0
2017-07-31T12:47:06.362Z,25.2
2017-07-31T12:48:08.139Z,25.1
2017-07-31T12:49:09.867Z,24.9
2017-07-31T12:50:11.654Z,24.9
2017-07-31T12:51:13.420Z,24.8
2017-07-31T12:52:15.150Z,24.8
2017-07-31T12:53:16.876Z,24.8
2017-07-31T12:54:18.715Z,25.0
2017-07-31T12:55:20.441Z,24.5
2017-07-31T12:56:22.219Z,24.8
2017-07-31T12:57:24.000Z,24.8
2017-07-31T12:58:25.830Z,24.6
2017-07-31T12:59:27.565Z,24.2
2017-07-31T13:00:29.357Z,24.1
2017-07-31T13:01:31.106Z,23.8
2017-07-31T13:02:32.851Z,23.7
2017-07-31T13:03:34.623Z,23.5
2017-07-31T13:04:36.357Z,23.7
2017-07-31T13:05:38.153Z,23.8
2017-07-31T13:06:39.927Z,24.1
2017-07-31T13:07:42.452Z,24.4
2017-07-31T13:08:44.180Z,24.5
2017-07-31T13:09:45.905Z,24.5
2017-07-31T13:10:47.622Z,24.7
2017-07-31T13:11:49.363Z,24.5
2017-07-31T13:12:51.079Z,23.7
2017-07-31T13:13:52.846Z,24.5
2017-07-31T13:14:54.616Z,24.0
2017-07-31T13:15:56.346Z,24.2
2017-07-31T13:16:58.127Z,24.0
2017-07-31T13:17:59.893Z,24.0
2017-07-31T13:19:01.613Z,24.3
2017-07-31T13:20:03.332Z,24.3
2017-07-31T13:21:05.062Z,24.5
2017-07-31T13:22:06.786Z,24.9
2017-07-31T13:23:08.475Z,24.8
2017-07-31T13:24:10.204Z,24.9
2017-07-31T13:25:11.913Z,24.4
2017-07-31T13:26:13.700Z,24.9
2017-07-31T13:27:15.455Z,24.7
2017-07-31T13:28:17.200Z,24.4
2017-07-31T13:29:18.942Z,23.7
2017-07-31T13:30:20.676Z,24.5
2017-07-31T13:31:22.386Z,24.5
2017-07-31T13:32:24.127Z,24.6
2017-07-31T13:33:25.845Z,24.8
2017-07-31T13:34:27.599Z,24.6
2017-07-31T13:35:29.342Z,24.7
2017-07-31T13:36:31.068Z,24.8
2017-07-31T13:37:32.814Z,24.5
2017-07-31T13:38:34.538Z,24.7
2017-07-31T13:39:36.247Z,24.7
2017-07-31T13:40:37.982Z,24.8
2017-07-31T13:41:39.688Z,25.1